Time;durP1;ratioP1;P1;durP2;ratioP2;P2;SDS_P1;SDS_P2;PMS_P1;PMS_P2;Temp;Humidity;BMP_temperature;BMP_pressure;BME280_temperature;BME280_humidity;BME280_pressure;Samples;Min_cycle;Max_cycle;Signal;HPM_P1;HPM_P2
2023/04/09 00:02:14;;;;;;;8.98;6.35;;;5.70;99.90;;;;;;5010293;28;20226;-67
2023/04/09 00:04:41;;;;;;;8.43;6.55;;;5.70;99.90;;;;;;5009798;28;20210;-67
2023/04/09 00:07:09;;;;;;;7.10;6.40;;;5.70;99.90;;;;;;5010018;28;20218;-67
2023/04/09 00:09:36;;;;;;;8.40;6.10;;;5.70;99.90;;;;;;5009780;28;20202;-67
2023/04/09 00:12:02;;;;;;;8.20;5.68;;;5.60;99.90;;;;;;5009989;28;20229;-67
2023/04/09 00:14:29;;;;;;;7.95;6.50;;;5.60;99.90;;;;;;5010183;28;20206;-67
2023/04/09 00:16:56;;;;;;;6.72;6.13;;;5.60;99.90;;;;;;5009841;28;20217;-66
2023/04/09 00:19:22;;;;;;;8.85;6.38;;;5.60;99.90;;;;;;5009789;28;20704;-68
2023/04/09 00:21:49;;;;;;;5.88;5.30;;;5.70;99.90;;;;;;5009641;28;20225;-68
2023/04/09 00:24:17;;;;;;;8.98;6.00;;;5.70;99.90;;;;;;5010086;28;20663;-67
2023/04/09 00:26:44;;;;;;;11.10;7.30;;;5.70;99.90;;;;;;5009486;28;20223;-67
2023/04/09 00:29:11;;;;;;;8.10;6.03;;;5.70;99.90;;;;;;5010203;28;20201;-67
2023/04/09 00:31:37;;;;;;;8.70;6.05;;;5.70;99.90;;;;;;5009649;28;20218;-67
2023/04/09 00:34:04;;;;;;;8.38;6.45;;;5.80;99.90;;;;;;5010175;28;20206;-68
2023/04/09 00:36:31;;;;;;;7.07;6.00;;;5.80;99.90;;;;;;5009677;28;20222;-67
2023/04/09 00:38:57;;;;;;;7.00;6.28;;;5.80;99.90;;;;;;5009667;28;20199;-68
2023/04/09 00:41:26;;;;;;;6.22;5.63;;;5.80;99.90;;;;;;5009929;28;20210;-68
2023/04/09 00:43:52;;;;;;;7.15;6.00;;;5.80;99.90;;;;;;5009531;28;20195;-68
2023/04/09 00:46:19;;;;;;;8.55;6.55;;;5.80;99.90;;;;;;5009706;28;20736;-67
2023/04/09 00:48:46;;;;;;;9.00;6.30;;;5.80;99.90;;;;;;5009014;28;20249;-68
2023/04/09 00:51:13;;;;;;;6.80;5.55;;;5.80;99.90;;;;;;5013271;28;20225;-67
2023/04/09 00:53:39;;;;;;;10.07;6.70;;;5.80;99.90;;;;;;5013317;28;20210;-67
2023/04/09 00:56:08;;;;;;;7.78;6.72;;;5.80;99.90;;;;;;5013187;28;20226;-67
2023/04/09 00:58:36;;;;;;;8.05;5.47;;;5.80;99.90;;;;;;5013468;28;20809;-67
2023/04/09 01:01:03;;;;;;;9.05;6.55;;;5.80;99.90;;;;;;5013295;28;20206;-68
2023/04/09 01:03:30;;;;;;;7.15;6.00;;;5.80;99.90;;;;;;5013224;28;20580;-68
2023/04/09 01:06:05;;;;;;;9.50;6.25;;;5.80;99.90;;;;;;5012712;28;20225;-68
2023/04/09 01:08:42;;;;;;;8.27;7.00;;;5.80;99.90;;;;;;5013274;28;20208;-67
2023/04/09 01:11:18;;;;;;;6.72;5.82;;;5.90;99.90;;;;;;5013082;28;20202;-67
2023/04/09 01:13:52;;;;;;;7.93;5.82;;;5.90;99.90;;;;;;5012933;28;20214;-67
2023/04/09 01:16:23;;;;;;;6.32;5.60;;;5.90;99.90;;;;;;5013118;28;20218;-67
2023/04/09 01:18:56;;;;;;;8.52;7.35;;;5.90;99.90;;;;;;5012228;28;20226;-67
2023/04/09 01:21:30;;;;;;;9.18;6.82;;;5.80;99.90;;;;;;5013110;28;20217;-67
2023/04/09 01:24:02;;;;;;;7.22;6.03;;;5.80;99.90;;;;;;5012709;28;20620;-67
2023/04/09 01:26:44;;;;;;;7.22;5.90;;;5.80;99.90;;;;;;5012922;28;20233;-67
2023/04/09 01:29:13;;;;;;;8.63;6.57;;;5.80;99.90;;;;;;5012858;28;20198;-67
2023/04/09 01:31:42;;;;;;;10.23;6.57;;;5.80;99.90;;;;;;5012381;28;20218;-67
2023/04/09 01:34:10;;;;;;;7.47;6.60;;;5.80;99.90;;;;;;5012850;28;20577;-67
2023/04/09 01:36:39;;;;;;;9.15;7.32;;;5.80;99.90;;;;;;5012217;28;20222;-67
2023/04/09 01:39:06;;;;;;;6.50;5.70;;;5.80;99.90;;;;;;5012388;28;20209;-67
2023/04/09 01:41:35;;;;;;;8.95;6.78;;;5.80;99.90;;;;;;5012611;28;20282;-67
2023/04/09 01:44:03;;;;;;;9.13;6.65;;;5.80;99.90;;;;;;5012327;28;20213;-67
2023/04/09 01:46:33;;;;;;;7.70;6.90;;;5.80;99.90;;;;;;5012430;28;20222;-67
2023/04/09 01:49:01;;;;;;;10.07;7.10;;;5.80;99.90;;;;;;4996338;28;20199;-67
2023/04/09 01:51:30;;;;;;;9.70;7.25;;;5.80;99.90;;;;;;5012787;28;20582;-67
2023/04/09 01:53:57;;;;;;;8.75;6.43;;;5.80;99.90;;;;;;5012337;28;20202;-72
2023/04/09 01:56:23;;;;;;;9.85;5.82;;;5.80;99.90;;;;;;5012719;28;20218;-67
2023/04/09 01:58:51;;;;;;;7.88;6.47;;;5.80;99.90;;;;;;5011936;28;20681;-67
2023/04/09 02:01:24;;;;;;;7.30;6.25;;;5.80;99.90;;;;;;5012187;28;20297;-67
2023/04/09 02:03:56;;;;;;;8.10;6.90;;;5.80;99.90;;;;;;5011995;28;20234;-67
2023/04/09 02:06:39;;;;;;;7.18;6.18;;;5.80;99.90;;;;;;5012132;28;20222;-67
2023/04/09 02:09:08;;;;;;;9.77;6.65;;;5.80;99.90;;;;;;5012116;28;20609;-67
2023/04/09 02:11:38;;;;;;;11.45;7.70;;;5.70;99.90;;;;;;5012033;28;20584;-68
2023/04/09 02:14:07;;;;;;;8.18;5.47;;;5.70;99.90;;;;;;5012115;28;20636;-68
2023/04/09 02:16:35;;;;;;;8.65;6.78;;;5.80;99.90;;;;;;5011714;28;20234;-68
2023/04/09 02:19:03;;;;;;;10.95;6.90;;;5.70;99.90;;;;;;5011616;28;20208;-67
2023/04/09 02:21:30;;;;;;;8.45;6.60;;;5.70;99.90;;;;;;5011906;28;20632;-67
2023/04/09 02:23:57;;;;;;;8.55;6.20;;;5.70;99.90;;;;;;5011199;28;20217;-67
2023/04/09 02:26:24;;;;;;;9.48;7.78;;;5.70;99.90;;;;;;5011702;28;20218;-68
2023/04/09 02:28:51;;;;;;;7.63;5.88;;;5.60;99.90;;;;;;5011231;28;20202;-67
2023/04/09 02:31:17;;;;;;;6.68;5.28;;;5.70;99.90;;;;;;5011698;28;20203;-67
2023/04/09 02:33:44;;;;;;;8.48;5.85;;;5.60;99.90;;;;;;5011247;28;20211;-67
2023/04/09 02:36:13;;;;;;;8.02;6.20;;;5.60;99.90;;;;;;5011343;28;20225;-67
2023/04/09 02:38:41;;;;;;;5.63;5.13;;;5.60;99.90;;;;;;5011047;28;20206;-67
2023/04/09 02:41:08;;;;;;;8.48;7.38;;;5.60;99.90;;;;;;5011558;28;20234;-67
2023/04/09 02:43:34;;;;;;;7.70;6.60;;;5.50;99.90;;;;;;5011795;28;20198;-67
2023/04/09 02:46:01;;;;;;;10.02;5.78;;;5.50;99.90;;;;;;5010921;28;20270;-67
2023/04/09 02:48:28;;;;;;;6.50;5.60;;;5.50;99.90;;;;;;5011392;28;20199;-67
2023/04/09 02:50:54;;;;;;;8.98;6.82;;;5.50;99.90;;;;;;5010643;28;20578;-67
2023/04/09 02:53:22;;;;;;;8.30;5.63;;;5.50;99.90;;;;;;5011449;28;20219;-67
2023/04/09 02:55:49;;;;;;;8.82;5.93;;;5.50;99.90;;;;;;5010648;28;20230;-67
2023/04/09 02:58:16;;;;;;;8.88;6.10;;;5.50;99.90;;;;;;5011239;28;20206;-67
2023/04/09 03:00:43;;;;;;;8.90;6.82;;;5.50;99.90;;;;;;5010607;28;20655;-66
2023/04/09 03:03:09;;;;;;;8.15;5.90;;;5.50;99.90;;;;;;5011076;28;20194;-67
2023/04/09 03:05:36;;;;;;;6.72;6.05;;;5.50;99.90;;;;;;5010998;28;20702;-68
2023/04/09 03:08:03;;;;;;;8.18;6.88;;;5.50;99.90;;;;;;5010528;28;20249;-68
2023/04/09 03:10:31;;;;;;;7.57;6.45;;;5.40;99.90;;;;;;5010880;28;20206;-68
2023/04/09 03:12:58;;;;;;;6.85;5.25;;;5.40;99.90;;;;;;5009874;28;20578;-68
2023/04/09 03:15:24;;;;;;;8.70;6.35;;;5.40;99.90;;;;;;5011020;28;20203;-68
2023/04/09 03:17:51;;;;;;;8.55;6.03;;;5.40;99.90;;;;;;5010373;28;20229;-68
2023/04/09 03:20:18;;;;;;;7.85;6.05;;;5.40;99.90;;;;;;5010678;28;20202;-67
2023/04/09 03:22:45;;;;;;;8.50;6.03;;;5.40;99.90;;;;;;5010678;28;20194;-67
2023/04/09 03:25:11;;;;;;;9.70;7.13;;;5.40;99.90;;;;;;5011291;28;20619;-68
2023/04/09 03:27:39;;;;;;;6.85;5.68;;;5.40;99.90;;;;;;5010869;28;20222;-67
2023/04/09 03:30:07;;;;;;;8.65;6.05;;;5.30;99.90;;;;;;5002615;28;20583;-67
2023/04/09 03:32:34;;;;;;;6.95;5.38;;;5.40;99.90;;;;;;5011521;28;20221;-68
2023/04/09 03:35:00;;;;;;;9.25;6.00;;;5.40;99.90;;;;;;5010565;28;20225;-68
2023/04/09 03:37:27;;;;;;;9.27;6.25;;;5.30;99.90;;;;;;5011221;28;20245;-68
2023/04/09 03:39:54;;;;;;;7.53;6.15;;;5.30;99.90;;;;;;5010382;28;20206;-67
2023/04/09 03:42:21;;;;;;;7.88;6.70;;;5.30;99.90;;;;;;5011013;28;20268;-68
2023/04/09 03:44:49;;;;;;;9.43;5.95;;;5.30;99.90;;;;;;5010747;28;20206;-67
2023/04/09 03:47:15;;;;;;;8.13;6.47;;;5.30;99.90;;;;;;5011254;28;20218;-67
2023/04/09 03:49:42;;;;;;;8.35;6.18;;;5.30;99.90;;;;;;5010664;28;20673;-67
2023/04/09 03:52:09;;;;;;;7.55;5.80;;;5.30;99.90;;;;;;5010735;28;20218;-67
2023/04/09 03:54:35;;;;;;;8.73;6.03;;;5.30;99.90;;;;;;5010869;28;20206;-68
2023/04/09 03:57:03;;;;;;;7.70;5.88;;;5.30;99.90;;;;;;5010168;28;20234;-67
2023/04/09 03:59:30;;;;;;;9.23;6.05;;;5.30;99.90;;;;;;5010509;28;20293;-67
2023/04/09 04:01:58;;;;;;;7.53;6.50;;;5.30;99.90;;;;;;5010125;28;20709;-67
2023/04/09 04:04:24;;;;;;;8.68;6.95;;;5.30;99.90;;;;;;5010882;28;20273;-67
2023/04/09 04:06:51;;;;;;;8.20;5.80;;;5.30;99.90;;;;;;5010021;28;20724;-68
2023/04/09 04:09:18;;;;;;;8.77;5.88;;;5.30;99.90;;;;;;5010466;28;20198;-67
2023/04/09 04:11:44;;;;;;;7.57;5.93;;;5.30;99.90;;;;;;5010440;28;20216;-66
2023/04/09 04:14:11;;;;;;;8.93;6.72;;;5.30;99.90;;;;;;5010167;28;20689;-66
2023/04/09 04:16:39;;;;;;;8.07;5.75;;;5.30;99.90;;;;;;5010398;28;20230;-67
2023/04/09 04:19:07;;;;;;;6.47;5.47;;;5.30;99.90;;;;;;5009922;28;20202;-67
2023/04/09 04:21:34;;;;;;;8.07;6.47;;;5.30;99.90;;;;;;5010630;28;20206;-67
2023/04/09 04:24:01;;;;;;;10.43;5.65;;;5.20;99.90;;;;;;5012076;28;20209;-67
2023/04/09 04:26:28;;;;;;;10.25;7.45;;;5.20;99.90;;;;;;5014438;28;20222;-67
2023/04/09 04:28:54;;;;;;;9.57;7.13;;;5.20;99.90;;;;;;5013923;28;20214;-67
2023/04/09 04:31:21;;;;;;;8.05;5.88;;;5.20;99.90;;;;;;5014770;28;20205;-67
2023/04/09 04:33:47;;;;;;;8.98;6.60;;;5.20;99.90;;;;;;5103233;22;20224;-66
2023/04/09 04:36:16;;;;;;;6.93;5.50;;;5.20;99.90;;;;;;5046865;28;20713;-65
2023/04/09 04:38:42;;;;;;;6.22;5.60;;;5.20;99.90;;;;;;5033479;28;20210;-65
2023/04/09 04:41:10;;;;;;;8.50;5.65;;;5.20;99.90;;;;;;5033679;28;20252;-65
2023/04/09 04:43:37;;;;;;;9.68;7.20;;;5.10;99.90;;;;;;5033745;28;20201;-65
2023/04/09 04:46:05;;;;;;;6.85;5.28;;;5.10;99.90;;;;;;5033168;28;20217;-66
2023/04/09 04:48:31;;;;;;;9.50;6.95;;;5.10;99.90;;;;;;5033817;28;20202;-65
2023/04/09 04:50:59;;;;;;;9.13;6.55;;;5.10;99.90;;;;;;5032948;28;20221;-65
2023/04/09 04:53:27;;;;;;;7.28;5.40;;;5.10;99.90;;;;;;5033650;28;20233;-65
2023/04/09 04:55:54;;;;;;;7.75;5.72;;;5.10;99.90;;;;;;5033146;28;20222;-65
2023/04/09 04:58:21;;;;;;;7.50;5.93;;;5.10;99.90;;;;;;5033690;28;20213;-65
2023/04/09 05:00:48;;;;;;;10.13;6.63;;;5.10;99.90;;;;;;5033039;28;20237;-65
2023/04/09 05:03:14;;;;;;;7.45;6.47;;;5.10;99.90;;;;;;5033293;28;20205;-65
2023/04/09 05:05:41;;;;;;;10.13;6.72;;;5.00;99.90;;;;;;5033335;28;20206;-65
2023/04/09 05:08:08;;;;;;;9.10;6.38;;;5.10;99.90;;;;;;5032971;28;20201;-65
2023/04/09 05:10:36;;;;;;;8.00;6.53;;;5.10;99.90;;;;;;5033082;28;20202;-66
2023/04/09 05:13:03;;;;;;;8.77;6.65;;;5.10;99.90;;;;;;5032655;28;20228;-65
2023/04/09 05:15:29;;;;;;;8.27;5.80;;;5.10;99.90;;;;;;5033231;28;20221;-65
2023/04/09 05:17:56;;;;;;;9.55;6.28;;;5.10;99.90;;;;;;5032804;28;20202;-66
2023/04/09 05:20:23;;;;;;;8.15;6.65;;;5.10;99.90;;;;;;5029371;28;20201;-65
2023/04/09 05:22:50;;;;;;;7.80;6.50;;;5.10;99.90;;;;;;5015380;28;20249;-66
2023/04/09 05:25:17;;;;;;;8.35;6.78;;;5.10;99.90;;;;;;5019073;28;20688;-66
2023/04/09 05:27:45;;;;;;;9.63;6.65;;;5.20;99.90;;;;;;5022987;28;20225;-65
2023/04/09 05:30:12;;;;;;;6.30;5.70;;;5.20;99.90;;;;;;5016433;28;20688;-65
2023/04/09 05:32:39;;;;;;;7.22;5.32;;;5.20;99.90;;;;;;5032943;28;20660;-65
2023/04/09 05:35:06;;;;;;;9.57;7.15;;;5.30;99.90;;;;;;5032217;28;20202;-65
2023/04/09 05:37:33;;;;;;;10.73;7.35;;;5.30;99.90;;;;;;5032768;28;20228;-65
2023/04/09 05:40:00;;;;;;;9.25;7.20;;;5.40;99.90;;;;;;5032144;28;20281;-65
2023/04/09 05:42:27;;;;;;;8.88;6.35;;;5.50;99.90;;;;;;5032847;28;20206;-65
2023/04/09 05:44:55;;;;;;;9.82;7.10;;;5.50;99.90;;;;;;5032465;28;20205;-65
2023/04/09 05:47:21;;;;;;;10.85;7.00;;;5.50;99.90;;;;;;5032450;28;20296;-66
2023/04/09 05:49:48;;;;;;;8.85;6.47;;;5.60;99.90;;;;;;5032184;28;20198;-65
2023/04/09 05:52:15;;;;;;;9.90;6.30;;;5.60;99.90;;;;;;5032474;28;20590;-65
2023/04/09 05:54:42;;;;;;;8.25;7.40;;;5.70;99.90;;;;;;5032671;28;20263;-65
2023/04/09 05:57:08;;;;;;;9.13;6.65;;;5.80;99.90;;;;;;5031860;28;20226;-65
2023/04/09 05:59:35;;;;;;;12.38;7.38;;;5.90;99.90;;;;;;5032256;28;20202;-66
2023/04/09 06:02:03;;;;;;;10.23;7.50;;;6.00;99.90;;;;;;5031970;28;20201;-66
2023/04/09 06:04:30;;;;;;;10.73;7.40;;;6.10;99.90;;;;;;5032016;28;20665;-65
2023/04/09 06:06:59;;;;;;;8.45;6.53;;;6.30;99.90;;;;;;5031998;28;20249;-65
2023/04/09 06:09:25;;;;;;;9.65;7.22;;;6.40;99.90;;;;;;5032030;28;20206;-65
2023/04/09 06:11:52;;;;;;;9.45;6.82;;;6.50;99.90;;;;;;5031941;28;20197;-65
2023/04/09 06:14:19;;;;;;;12.55;8.68;;;6.70;99.90;;;;;;5032245;28;20765;-66
2023/04/09 06:16:45;;;;;;;9.43;7.40;;;6.80;99.90;;;;;;5031788;28;20224;-66
2023/04/09 06:19:16;;;;;;;12.35;7.35;;;6.90;99.90;;;;;;5031339;28;20203;-65
2023/04/09 06:21:42;;;;;;;7.35;6.65;;;7.00;99.90;;;;;;5031781;28;20216;-65
2023/04/09 06:24:09;;;;;;;8.63;6.38;;;7.00;99.90;;;;;;5031701;28;20198;-65
2023/04/09 06:26:36;;;;;;;10.10;7.00;;;7.00;99.90;;;;;;5031487;28;20232;-65
2023/04/09 06:29:03;;;;;;;10.50;7.35;;;7.00;99.90;;;;;;5031577;28;20208;-65
2023/04/09 06:31:30;;;;;;;9.38;6.97;;;6.90;99.90;;;;;;5031578;28;20205;-66
2023/04/09 06:33:56;;;;;;;7.75;6.10;;;6.90;99.90;;;;;;5031508;28;20232;-65
2023/04/09 06:36:26;;;;;;;8.70;7.22;;;6.90;99.90;;;;;;5031398;28;20704;-65
2023/04/09 06:38:53;;;;;;;8.88;6.13;;;6.90;99.90;;;;;;5031120;28;20204;-65
2023/04/09 06:41:21;;;;;;;8.68;6.95;;;7.10;99.90;;;;;;5031655;28;20217;-65
2023/04/09 06:43:47;;;;;;;9.55;6.70;;;7.10;99.90;;;;;;5031515;28;20205;-65
2023/04/09 06:46:16;;;;;;;7.45;6.35;;;7.20;99.90;;;;;;5031016;28;20218;-66
2023/04/09 06:48:43;;;;;;;8.20;6.97;;;7.30;99.90;;;;;;5030138;28;20206;-65
2023/04/09 06:51:10;;;;;;;10.48;7.03;;;7.30;99.90;;;;;;5030837;28;20665;-65
2023/04/09 06:53:39;;;;;;;9.40;7.45;;;7.40;99.90;;;;;;5030698;28;20696;-65
2023/04/09 06:56:06;;;;;;;9.85;6.97;;;7.50;99.90;;;;;;5022418;28;20697;-65
2023/04/09 06:58:33;;;;;;;8.75;6.20;;;7.60;99.90;;;;;;5026649;28;20198;-65
2023/04/09 07:01:00;;;;;;;9.90;7.38;;;7.80;99.90;;;;;;5030657;28;20273;-65
2023/04/09 07:03:27;;;;;;;8.63;6.30;;;8.00;99.90;;;;;;5031121;28;20293;-65
2023/04/09 07:05:54;;;;;;;8.88;7.38;;;8.10;99.90;;;;;;5030599;28;20302;-65
2023/04/09 07:08:22;;;;;;;10.05;6.30;;;8.10;99.90;;;;;;5030995;28;20202;-66
2023/04/09 07:10:50;;;;;;;7.88;6.47;;;8.00;99.90;;;;;;5025346;28;20667;-66
2023/04/09 07:13:17;;;;;;;10.27;7.47;;;8.00;99.90;;;;;;5014036;28;20611;-65
2023/04/09 07:15:44;;;;;;;9.38;6.75;;;8.00;99.90;;;;;;5030456;28;20275;-65
2023/04/09 07:18:11;;;;;;;9.05;6.70;;;8.10;99.90;;;;;;5030713;28;20205;-65
2023/04/09 07:20:37;;;;;;;7.68;6.15;;;8.20;99.90;;;;;;5030171;28;20202;-63
2023/04/09 07:23:04;;;;;;;8.20;6.43;;;8.30;99.90;;;;;;5030499;28;20209;-65
2023/04/09 07:25:31;;;;;;;9.15;7.18;;;8.30;99.90;;;;;;5030277;28;20201;-65
2023/04/09 07:27:59;;;;;;;9.68;5.82;;;8.40;99.90;;;;;;5030474;28;20206;-67
2023/04/09 07:30:26;;;;;;;8.77;6.85;;;8.40;99.90;;;;;;5030264;28;20578;-64
2023/04/09 07:32:53;;;;;;;7.68;5.65;;;8.40;99.90;;;;;;5018798;28;20209;-66
2023/04/09 07:35:20;;;;;;;10.10;6.20;;;8.50;99.90;;;;;;5021898;28;20232;-66
2023/04/09 07:37:47;;;;;;;6.85;5.60;;;8.60;99.90;;;;;;5029761;28;20316;-67
2023/04/09 07:40:15;;;;;;;9.05;6.78;;;8.60;99.90;;;;;;5029003;28;20205;-66
2023/04/09 07:42:42;;;;;;;6.13;5.10;;;8.60;99.90;;;;;;5029649;28;20260;-64
2023/04/09 07:45:10;;;;;;;8.65;5.88;;;8.70;99.90;;;;;;5030027;28;20673;-64
2023/04/09 07:47:39;;;;;;;6.10;4.95;;;8.80;99.90;;;;;;5029178;28;20758;-64
2023/04/09 07:50:07;;;;;;;6.53;4.93;;;9.00;99.90;;;;;;5029849;28;20197;-64
2023/04/09 07:52:34;;;;;;;7.40;5.63;;;9.20;99.90;;;;;;5029198;28;20210;-66
2023/04/09 07:55:01;;;;;;;5.80;4.63;;;9.40;99.90;;;;;;5021655;28;20241;-66
2023/04/09 07:57:28;;;;;;;6.47;4.95;;;9.70;99.90;;;;;;5029584;28;20566;-66
2023/04/09 07:59:55;;;;;;;8.55;5.13;;;9.80;99.90;;;;;;5027433;28;20571;-66
2023/04/09 08:02:23;;;;;;;6.95;5.20;;;10.00;99.90;;;;;;5029113;28;20213;-65
2023/04/09 08:04:51;;;;;;;5.70;5.00;;;10.40;99.90;;;;;;5029668;28;20205;-64
2023/04/09 08:07:18;;;;;;;5.65;4.88;;;10.70;99.90;;;;;;5029080;28;20217;-64
2023/04/09 08:09:45;;;;;;;6.75;5.40;;;11.30;99.90;;;;;;5028994;28;20205;-64
2023/04/09 08:12:12;;;;;;;6.25;5.63;;;11.70;99.90;;;;;;5029089;28;20288;-64
2023/04/09 08:14:40;;;;;;;5.85;4.90;;;11.70;99.90;;;;;;5029420;28;20249;-64
2023/04/09 08:17:07;;;;;;;5.05;4.50;;;11.40;99.90;;;;;;5029358;28;20254;-67
2023/04/09 08:19:35;;;;;;;7.30;4.75;;;11.60;99.90;;;;;;5028716;28;20202;-64
2023/04/09 08:22:02;;;;;;;7.55;4.65;;;11.60;99.90;;;;;;5029025;28;20261;-64
2023/04/09 08:24:30;;;;;;;4.78;4.10;;;11.90;99.90;;;;;;5029334;28;20197;-68
2023/04/09 08:26:57;;;;;;;5.97;4.40;;;11.90;99.90;;;;;;5029232;28;20224;-65
2023/04/09 08:29:24;;;;;;;6.17;5.20;;;12.20;99.90;;;;;;5028968;28;20202;-66
2023/04/09 08:31:51;;;;;;;6.50;4.83;;;12.70;99.90;;;;;;5028762;28;20466;-66
2023/04/09 08:34:20;;;;;;;6.10;4.97;;;13.40;99.90;;;;;;5029069;28;20852;-66
2023/04/09 08:36:48;;;;;;;5.27;4.43;;;14.00;99.90;;;;;;5029178;28;20493;-67
2023/04/09 08:39:17;;;;;;;3.43;3.13;;;14.80;99.10;;;;;;5028838;28;20479;-66
2023/04/09 08:41:46;;;;;;;4.83;3.63;;;15.50;96.80;;;;;;5028860;28;20554;-65
2023/04/09 08:44:13;;;;;;;7.10;6.00;;;16.10;96.20;;;;;;5028802;28;20467;-66
2023/04/09 08:46:40;;;;;;;5.70;5.03;;;16.20;96.00;;;;;;5028621;28;20566;-66
2023/04/09 08:49:09;;;;;;;5.40;4.63;;;16.30;96.80;;;;;;5028965;28;20551;-66
2023/04/09 08:51:36;;;;;;;7.10;5.20;;;16.50;96.00;;;;;;5020050;28;20468;-65
2023/04/09 08:54:04;;;;;;;5.27;4.77;;;16.50;94.10;;;;;;5017230;28;20490;-65
2023/04/09 08:56:32;;;;;;;5.33;4.80;;;16.20;94.80;;;;;;5002972;28;20528;-66
2023/04/09 08:58:58;;;;;;;7.13;5.63;;;16.20;94.40;;;;;;5027056;28;20885;-65
2023/04/09 09:01:26;;;;;;;6.23;5.07;;;16.60;95.30;;;;;;5020651;28;20472;-66
2023/04/09 09:03:56;;;;;;;5.87;5.23;;;16.80;94.50;;;;;;5021796;28;20465;-66
2023/04/09 09:06:23;;;;;;;6.43;5.63;;;17.10;93.60;;;;;;5027717;28;20850;-65
2023/04/09 09:09:08;;;;;;;6.73;6.03;;;16.20;93.00;;;;;;5027773;28;20472;-66
2023/04/09 09:11:36;;;;;;;6.90;6.10;;;15.30;95.30;;;;;;5017234;28;20471;-65
2023/04/09 09:14:05;;;;;;;5.93;5.10;;;15.60;95.60;;;;;;5031684;28;20994;-65
2023/04/09 09:16:34;;;;;;;6.80;5.90;;;15.40;94.80;;;;;;5024104;28;20852;-66
2023/04/09 09:19:02;;;;;;;6.20;5.53;;;14.50;95.00;;;;;;5031441;28;20464;-65
2023/04/09 09:21:30;;;;;;;5.07;4.57;;;14.20;95.60;;;;;;5019953;28;20465;-65
2023/04/09 09:23:57;;;;;;;6.63;5.27;;;14.20;95.80;;;;;;5012639;28;20964;-66
2023/04/09 09:26:27;;;;;;;5.37;4.80;;;14.00;95.70;;;;;;5030270;28;20483;-65
2023/04/09 09:28:57;;;;;;;6.60;5.77;;;14.10;96.10;;;;;;5029375;28;20875;-66
2023/04/09 09:31:24;;;;;;;5.80;5.20;;;15.00;96.90;;;;;;5031403;28;20473;-65
2023/04/09 09:33:52;;;;;;;5.37;4.87;;;15.40;93.70;;;;;;5031668;28;20511;-66
2023/04/09 09:36:36;;;;;;;6.17;5.57;;;15.90;94.60;;;;;;5030857;28;20484;-66
2023/04/09 09:39:08;;;;;;;5.63;5.13;;;16.60;94.80;;;;;;5030520;28;20846;-67
2023/04/09 09:41:37;;;;;;;5.00;4.50;;;17.30;93.50;;;;;;5030951;28;20464;-67
2023/04/09 09:44:05;;;;;;;4.70;4.30;;;17.80;92.80;;;;;;5029899;28;20453;-66
2023/04/09 09:46:36;;;;;;;5.10;4.60;;;17.10;91.00;;;;;;5030841;28;21015;-66
2023/04/09 09:49:02;;;;;;;4.90;4.47;;;15.80;91.50;;;;;;5000095;28;20470;-64
2023/04/09 09:51:32;;;;;;;5.07;4.23;;;14.60;92.70;;;;;;5007062;28;20462;-65
2023/04/09 09:53:59;;;;;;;4.20;3.60;;;13.70;92.70;;;;;;4997081;28;20486;-66
2023/04/09 09:56:32;;;;;;;4.43;4.03;;;12.70;93.40;;;;;;5008261;28;20487;-65
2023/04/09 09:59:07;;;;;;;6.17;4.40;;;12.40;94.60;;;;;;5000661;28;20478;-65
2023/04/09 10:01:36;;;;;;;4.67;4.23;;;12.50;95.30;;;;;;5002342;28;20560;-66
2023/04/09 10:04:06;;;;;;;5.27;4.60;;;13.20;96.50;;;;;;5009697;28;20465;-68
2023/04/09 10:06:34;;;;;;;5.43;4.60;;;14.50;94.70;;;;;;5013656;28;20532;-69
2023/04/09 10:09:05;;;;;;;6.27;4.47;;;15.80;93.80;;;;;;5007214;28;20484;-68
2023/04/09 10:11:35;;;;;;;5.77;4.57;;;15.80;92.40;;;;;;5011938;28;20476;-68
2023/04/09 10:14:04;;;;;;;3.80;3.50;;;15.10;93.20;;;;;;5011058;28;20484;-68
2023/04/09 10:16:36;;;;;;;5.13;4.33;;;14.60;91.50;;;;;;5014672;28;20489;-66
2023/04/09 10:19:03;;;;;;;4.97;4.27;;;14.10;93.50;;;;;;5012111;28;20480;-66
2023/04/09 10:21:40;;;;;;;4.43;4.03;;;14.20;94.00;;;;;;5012018;28;20465;-65
2023/04/09 10:24:08;;;;;;;5.20;4.67;;;14.20;93.30;;;;;;5012766;28;20963;-67
2023/04/09 10:26:35;;;;;;;3.30;3.00;;;14.10;93.10;;;;;;5014755;28;20485;-65
2023/04/09 10:29:08;;;;;;;4.50;4.10;;;13.70;91.30;;;;;;5012240;28;20826;-68
2023/04/09 10:31:51;;;;;;;5.00;4.20;;;14.00;91.30;;;;;;5015254;28;20948;-66
2023/04/09 10:34:18;;;;;;;4.40;4.00;;;13.80;92.20;;;;;;5011558;28;20485;-66
2023/04/09 10:36:50;;;;;;;6.23;4.60;;;13.40;92.30;;;;;;5009847;28;20488;-66
2023/04/09 10:39:17;;;;;;;6.63;4.97;;;13.20;93.00;;;;;;5009761;28;20497;-66
2023/04/09 10:41:46;;;;;;;4.30;3.90;;;12.90;92.20;;;;;;5013869;28;20960;-66
2023/04/09 10:44:21;;;;;;;4.90;4.40;;;12.80;93.10;;;;;;5011662;28;20846;-65
2023/04/09 10:46:49;;;;;;;4.30;3.73;;;12.90;92.30;;;;;;5014301;28;20512;-66
2023/04/09 10:49:17;;;;;;;4.57;3.70;;;12.70;92.90;;;;;;5009975;28;20465;-66
2023/04/09 10:51:50;;;;;;;4.77;4.20;;;12.60;92.90;;;;;;5013438;28;20771;-67
2023/04/09 10:54:46;;;;;;;4.32;3.92;;;12.50;93.00;;;;;;5010726;28;20488;-66
2023/04/09 10:57:15;;;;;;;4.10;3.70;;;13.10;92.60;;;;;;5010537;28;20317;-66
2023/04/09 10:59:45;;;;;;;4.37;3.87;;;14.10;93.00;;;;;;5015528;28;20560;-65
2023/04/09 11:02:41;;;;;;;3.10;2.80;;;15.50;91.50;;;;;;5006367;28;20473;-66
2023/04/09 11:05:21;;;;;;;5.13;3.33;;;16.90;90.90;;;;;;5014666;28;20469;-65
2023/04/09 11:07:54;;;;;;;3.40;3.07;;;16.40;85.70;;;;;;5005930;28;20481;-67
2023/04/09 11:10:21;;;;;;;3.90;3.07;;;14.70;87.90;;;;;;5014597;28;20465;-68
2023/04/09 11:12:48;;;;;;;2.83;2.63;;;14.40;86.00;;;;;;5009698;28;20489;-68
2023/04/09 11:15:20;;;;;;;3.30;3.00;;;14.30;88.70;;;;;;5017164;28;20497;-68
2023/04/09 11:17:48;;;;;;;3.70;3.33;;;14.20;90.70;;;;;;5010754;28;20856;-68
2023/04/09 11:20:16;;;;;;;4.30;3.67;;;14.10;90.70;;;;;;5017367;28;20473;-68
2023/04/09 11:22:43;;;;;;;3.80;3.40;;;14.10;91.20;;;;;;5011275;28;20468;-68
2023/04/09 11:25:10;;;;;;;3.30;3.00;;;14.30;88.00;;;;;;5016996;28;20465;-68
2023/04/09 11:27:46;;;;;;;3.40;3.10;;;14.20;88.50;;;;;;5009675;28;20492;-68
2023/04/09 11:30:13;;;;;;;4.07;3.67;;;14.60;89.90;;;;;;5016370;28;20563;-68
2023/04/09 11:32:41;;;;;;;3.93;3.20;;;14.00;88.10;;;;;;5010496;28;20465;-67
2023/04/09 11:35:13;;;;;;;3.77;3.47;;;13.50;89.70;;;;;;5020622;28;20508;-68
2023/04/09 11:37:40;;;;;;;3.60;3.30;;;14.00;91.30;;;;;;5000069;28;21074;-67
2023/04/09 11:40:08;;;;;;;4.80;3.70;;;15.60;90.70;;;;;;5015162;28;20544;-66
2023/04/09 11:42:35;;;;;;;3.80;3.40;;;16.80;87.00;;;;;;5005493;28;20964;-66
2023/04/09 11:45:03;;;;;;;3.57;3.20;;;16.50;86.90;;;;;;5012177;28;20492;-68
2023/04/09 11:47:31;;;;;;;4.10;3.80;;;16.10;85.50;;;;;;5012798;28;20493;-66
2023/04/09 11:50:01;;;;;;;4.13;3.73;;;16.30;87.60;;;;;;5014575;28;20497;-68
2023/04/09 11:52:29;;;;;;;3.73;3.40;;;16.20;86.00;;;;;;5012362;28;20464;-68
2023/04/09 11:55:00;;;;;;;4.17;3.73;;;16.00;88.00;;;;;;5014490;28;21342;-68
2023/04/09 11:57:42;;;;;;;4.30;3.90;;;15.50;89.30;;;;;;5011974;28;20483;-68
2023/04/09 12:00:11;;;;;;;4.33;3.93;;;15.10;89.00;;;;;;5014345;28;20520;-68
2023/04/09 12:02:40;;;;;;;4.20;3.53;;;15.00;89.40;;;;;;5005521;28;20507;-67
2023/04/09 12:05:10;;;;;;;4.13;3.60;;;16.50;88.30;;;;;;5017538;28;20465;-66
2023/04/09 12:07:37;;;;;;;4.17;3.40;;;18.20;88.00;;;;;;5012007;28;20476;-68
2023/04/09 12:10:05;;;;;;;3.20;2.90;;;19.00;79.90;;;;;;5013671;28;20468;-68
2023/04/09 12:12:40;;;;;;;3.43;3.13;;;18.90;79.70;;;;;;5011525;28;20496;-66
2023/04/09 12:15:11;;;;;;;3.50;3.10;;;18.90;79.30;;;;;;5013694;28;20484;-66
2023/04/09 12:17:38;;;;;;;4.67;3.40;;;18.80;79.40;;;;;;5011073;28;20488;-66
2023/04/09 12:20:07;;;;;;;3.50;3.20;;;19.50;81.10;;;;;;5010743;28;20468;-66
2023/04/09 12:22:39;;;;;;;4.30;3.37;;;20.10;81.30;;;;;;5009180;28;20469;-66
2023/04/09 12:25:06;;;;;;;4.07;3.67;;;20.50;79.20;;;;;;5013919;28;20496;-65
2023/04/09 12:27:33;;;;;;;4.37;3.97;;;21.10;75.30;;;;;;5008271;28;20488;-67
2023/04/09 12:30:00;;;;;;;3.97;3.57;;;21.10;78.50;;;;;;5012982;28;20519;-66
2023/04/09 12:32:27;;;;;;;3.57;3.27;;;19.80;75.20;;;;;;5010203;28;20518;-66
2023/04/09 12:34:53;;;;;;;3.70;3.30;;;19.80;77.30;;;;;;5013121;28;20489;-66
2023/04/09 12:37:21;;;;;;;5.10;4.60;;;20.20;78.20;;;;;;5010356;28;20496;-66
2023/04/09 12:39:49;;;;;;;4.17;3.77;;;20.90;75.50;;;;;;5007960;28;20462;-67
2023/04/09 12:42:16;;;;;;;4.27;3.83;;;21.00;79.50;;;;;;5009275;28;20548;-67
2023/04/09 12:44:43;;;;;;;3.80;3.40;;;21.60;77.00;;;;;;5013695;28;20473;-67
2023/04/09 12:47:09;;;;;;;3.80;3.50;;;21.90;77.90;;;;;;5011738;28;20960;-66
2023/04/09 12:49:36;;;;;;;4.30;3.90;;;22.40;78.40;;;;;;5015120;28;20469;-66
2023/04/09 12:52:03;;;;;;;4.03;3.63;;;22.40;76.40;;;;;;5013242;28;20469;-66
2023/04/09 12:54:30;;;;;;;3.97;3.57;;;22.60;75.80;;;;;;5015073;28;20507;-67
2023/04/09 12:56:58;;;;;;;4.07;3.77;;;22.80;74.80;;;;;;5012766;28;20491;-66
2023/04/09 12:59:24;;;;;;;4.13;3.57;;;23.10;75.20;;;;;;5010858;28;20927;-67